Observations for Trim Market St
| Time | AQI | Temp °C | Hum % | Pres Pa | CO μg/m³ | H₂S μg/m³ | NO μg/m³ | NO₂ μg/m³ | O₃ μg/m³ | SO₂ μg/m³ | PM1 μg/m³ | PM2.5 μg/m³ | PM10 μg/m³ |
|---|---|---|---|---|---|---|---|---|---|---|---|---|---|
| Sunday 16 August 2026 | |||||||||||||
| 08:43 | 2 | 16.1 | 73 | 48,125 | 0.35 | 0 | 2.16 | 13.48 | 56.59 | 0 | 3.56 | 5.3 | 8.14 |
| 08:41 | 2 | 16 | 73 | 48,040 | 0.35 | 0 | 2.1 | 14.45 | 57.57 | 0 | 2.85 | 4.34 | 8.14 |
| 08:40 | 2 | 16 | 73 | 48,107 | 0.35 | 0 | 2.26 | 11.91 | 62.02 | 0 | 3.56 | 5.78 | 8.74 |
| 08:39 | 2 | 15.9 | 73 | 48,131 | 0.35 | 0 | 2.21 | 11.91 | 57.96 | 0 | 4.99 | 5.3 | 8.74 |
| 08:37 | 2 | 15.9 | 74 | 48,024 | 0.31 | 0 | 2.33 | 10.54 | 52.91 | 0 | 2.14 | 3.37 | 5.71 |
| 08:33 | 2 | 15.8 | 73 | 48,355 | 0.3 | 0 | 2.12 | 11.39 | 57.46 | 0 | 2.85 | 4.82 | 8.14 |
| 08:30 | 2 | 15.7 | 73 | 48,790 | 0.29 | 0 | 2.3 | 11.15 | 59.14 | 0 | 2.85 | 4.35 | 6.92 |
| 08:25 | 2 | 15.6 | 73 | 49,736 | 0.27 | 0 | 2.6 | 10.36 | 54.51 | 0 | 2.85 | 4.36 | 6.92 |
| 08:20 | 2 | 15.5 | 73 | 51,274 | 0.29 | 0 | 2.46 | 8.16 | 60.25 | 0 | 1.43 | 3.41 | 5.7 |
| 08:18 | 2 | 15.5 | 72 | 51,634 | 0.23 | 0 | 2.72 | 9.42 | 56.86 | 0 | 2.85 | 4.39 | 6.92 |
| 08:17 | 2 | 15.5 | 72 | 52,011 | 0.23 | 0 | 2.83 | 9.7 | 57.71 | 0 | 2.85 | 3.92 | 6.3 |
| 08:16 | 2 | 15.5 | 72 | 52,368 | 0.24 | 0 | 2.73 | 6.59 | 48.85 | 0 | 2.85 | 3.92 | 6.3 |
| 08:15 | 2 | 15.5 | 72 | 52,716 | 0.25 | 0 | 2.49 | 11.15 | 55.85 | 0 | 2.85 | 5.38 | 8.15 |
| 08:14 | 2 | 15.6 | 72 | 53,112 | 0.24 | 0 | 2.08 | 10.7 | 60.76 | 0 | 3.56 | 4.9 | 8.76 |
| 08:13 | 2 | 15.5 | 72 | 53,443 | 0.26 | 0 | 2.04 | 8.22 | 52.33 | 0 | 2.85 | 4.91 | 8.15 |
| 08:12 | 2 | 15.6 | 72 | 53,759 | 0.25 | 0 | 2.02 | 9.21 | 48.37 | 0 | 1.43 | 2.98 | 5.06 |
| 08:11 | 2 | 15.6 | 72 | 54,048 | 0.27 | 0 | 2.21 | 10.62 | 54.09 | 0 | 2.85 | 4.44 | 6.91 |
| 08:10 | 2 | 15.6 | 71 | 54,269 | 0.28 | 0 | 2.25 | 7.06 | 48.6 | 0 | 3.56 | 5.41 | 8.15 |
| 08:09 | 2 | 15.7 | 71 | 54,427 | 0.29 | 0 | 2.26 | 7.03 | 43.66 | 0 | 2.14 | 3.96 | 6.29 |
| 08:08 | 2 | 15.7 | 71 | 54,560 | 0.28 | 0 | 2.4 | 8.02 | 44.02 | 0 | 2.85 | 4.93 | 8.15 |